sensor_id;sensor_type;location;lat;lon;timestamp;pressure;altitude;pressure_sealevel;temperature;humidity
35331;BME280;21441;52.190;20.910;2023-04-07T00:01:16;100044.78;;;4.61;100.00
35331;BME280;21441;52.190;20.910;2023-04-07T00:03:43;100044.91;;;4.49;100.00
35331;BME280;21441;52.190;20.910;2023-04-07T00:06:12;100046.31;;;4.44;100.00
35331;BME280;21441;52.190;20.910;2023-04-07T00:08:39;100043.97;;;4.50;100.00
35331;BME280;21441;52.190;20.910;2023-04-07T00:11:06;100038.81;;;4.59;100.00
35331;BME280;21441;52.190;20.910;2023-04-07T00:13:34;100037.03;;;4.69;100.00
35331;BME280;21441;52.190;20.910;2023-04-07T00:16:01;100036.31;;;4.57;100.00
35331;BME280;21441;52.190;20.910;2023-04-07T00:18:28;100034.94;;;4.53;100.00
35331;BME280;21441;52.190;20.910;2023-04-07T00:20:55;100030.75;;;4.50;100.00
35331;BME280;21441;52.190;20.910;2023-04-07T00:23:23;100033.78;;;4.36;100.00
35331;BME280;21441;52.190;20.910;2023-04-07T00:25:51;100033.66;;;4.38;100.00
35331;BME280;21441;52.190;20.910;2023-04-07T00:28:18;100035.47;;;4.37;100.00
35331;BME280;21441;52.190;20.910;2023-04-07T00:30:45;100029.19;;;4.38;100.00
35331;BME280;21441;52.190;20.910;2023-04-07T00:33:12;100032.66;;;4.39;100.00
35331;BME280;21441;52.190;20.910;2023-04-07T00:35:39;100027.38;;;4.39;100.00
35331;BME280;21441;52.190;20.910;2023-04-07T00:38:07;100018.78;;;4.56;100.00
35331;BME280;21441;52.190;20.910;2023-04-07T00:40:35;100029.47;;;4.45;100.00
35331;BME280;21441;52.190;20.910;2023-04-07T00:43:02;100023.78;;;4.49;100.00
35331;BME280;21441;52.190;20.910;2023-04-07T00:45:29;100017.53;;;4.50;100.00
35331;BME280;21441;52.190;20.910;2023-04-07T00:47:57;100011.31;;;4.61;100.00
35331;BME280;21441;52.190;20.910;2023-04-07T00:50:24;100018.13;;;4.64;100.00
35331;BME280;21441;52.190;20.910;2023-04-07T00:52:52;100020.59;;;4.65;100.00
35331;BME280;21441;52.190;20.910;2023-04-07T00:55:23;100010.03;;;4.65;100.00
35331;BME280;21441;52.190;20.910;2023-04-07T00:57:51;100009.06;;;4.66;100.00
35331;BME280;21441;52.190;20.910;2023-04-07T01:00:19;100008.22;;;4.75;100.00
35331;BME280;21441;52.190;20.910;2023-04-07T01:02:51;100005.44;;;4.87;100.00
35331;BME280;21441;52.190;20.910;2023-04-07T01:05:24;99998.47;;;4.76;100.00
35331;BME280;21441;52.190;20.910;2023-04-07T01:08:00;99999.34;;;4.77;100.00
35331;BME280;21441;52.190;20.910;2023-04-07T01:10:34;100002.53;;;4.80;100.00
35331;BME280;21441;52.190;20.910;2023-04-07T01:13:06;100009.22;;;4.74;100.00
35331;BME280;21441;52.190;20.910;2023-04-07T01:15:35;100001.00;;;4.68;100.00
35331;BME280;21441;52.190;20.910;2023-04-07T01:18:10;100004.34;;;4.70;100.00
35331;BME280;21441;52.190;20.910;2023-04-07T01:20:39;100006.56;;;4.65;100.00
35331;BME280;21441;52.190;20.910;2023-04-07T01:23:17;100005.31;;;4.69;100.00
35331;BME280;21441;52.190;20.910;2023-04-07T01:25:53;100003.50;;;4.79;100.00
35331;BME280;21441;52.190;20.910;2023-04-07T01:29:06;100000.16;;;4.96;100.00
35331;BME280;21441;52.190;20.910;2023-04-07T01:31:40;100007.81;;;4.90;100.00
35331;BME280;21441;52.190;20.910;2023-04-07T01:34:09;100004.47;;;4.97;100.00
35331;BME280;21441;52.190;20.910;2023-04-07T01:36:36;100000.44;;;4.93;100.00
35331;BME280;21441;52.190;20.910;2023-04-07T01:39:04;99996.28;;;4.81;100.00
35331;BME280;21441;52.190;20.910;2023-04-07T01:41:32;99994.88;;;4.87;100.00
35331;BME280;21441;52.190;20.910;2023-04-07T01:44:00;99990.56;;;4.86;100.00
35331;BME280;21441;52.190;20.910;2023-04-07T01:46:27;99988.59;;;4.97;100.00
35331;BME280;21441;52.190;20.910;2023-04-07T01:48:56;99987.78;;;4.97;100.00
35331;BME280;21441;52.190;20.910;2023-04-07T01:51:25;99976.78;;;5.02;100.00
35331;BME280;21441;52.190;20.910;2023-04-07T01:53:54;99974.72;;;4.86;100.00
35331;BME280;21441;52.190;20.910;2023-04-07T01:56:21;99992.50;;;4.84;100.00
35331;BME280;21441;52.190;20.910;2023-04-07T01:58:48;99985.28;;;4.86;100.00
35331;BME280;21441;52.190;20.910;2023-04-07T02:01:15;99987.47;;;5.00;100.00
35331;BME280;21441;52.190;20.910;2023-04-07T02:04:01;99986.94;;;4.96;100.00
35331;BME280;21441;52.190;20.910;2023-04-07T02:06:34;99980.81;;;5.06;100.00
35331;BME280;21441;52.190;20.910;2023-04-07T02:09:06;99983.19;;;4.99;100.00
35331;BME280;21441;52.190;20.910;2023-04-07T02:11:37;99993.19;;;4.95;100.00
35331;BME280;21441;52.190;20.910;2023-04-07T02:14:07;99991.25;;;5.07;100.00
35331;BME280;21441;52.190;20.910;2023-04-07T02:16:35;99992.34;;;5.05;100.00
35331;BME280;21441;52.190;20.910;2023-04-07T02:19:03;99990.66;;;5.13;100.00
35331;BME280;21441;52.190;20.910;2023-04-07T02:21:33;99980.94;;;5.14;100.00
35331;BME280;21441;52.190;20.910;2023-04-07T02:24:01;99989.81;;;5.13;100.00
35331;BME280;21441;52.190;20.910;2023-04-07T02:26:32;99985.63;;;5.20;100.00
35331;BME280;21441;52.190;20.910;2023-04-07T02:29:00;99991.91;;;5.19;100.00
35331;BME280;21441;52.190;20.910;2023-04-07T02:31:27;99988.28;;;5.20;100.00
35331;BME280;21441;52.190;20.910;2023-04-07T02:33:55;99988.19;;;5.12;100.00
35331;BME280;21441;52.190;20.910;2023-04-07T02:36:21;99986.63;;;5.19;100.00
35331;BME280;21441;52.190;20.910;2023-04-07T02:38:50;99981.72;;;5.34;100.00
35331;BME280;21441;52.190;20.910;2023-04-07T02:41:17;99981.16;;;5.30;100.00
35331;BME280;21441;52.190;20.910;2023-04-07T02:43:44;99986.84;;;5.35;100.00
35331;BME280;21441;52.190;20.910;2023-04-07T02:46:11;99981.03;;;5.32;100.00
35331;BME280;21441;52.190;20.910;2023-04-07T02:48:38;99977.13;;;5.26;100.00
35331;BME280;21441;52.190;20.910;2023-04-07T02:51:05;99974.06;;;5.31;100.00
35331;BME280;21441;52.190;20.910;2023-04-07T02:53:32;99971.66;;;5.47;100.00
35331;BME280;21441;52.190;20.910;2023-04-07T02:56:00;99973.88;;;5.42;100.00
35331;BME280;21441;52.190;20.910;2023-04-07T02:58:28;99974.44;;;5.46;100.00
35331;BME280;21441;52.190;20.910;2023-04-07T03:00:55;99990.31;;;5.46;100.00
35331;BME280;21441;52.190;20.910;2023-04-07T03:03:22;99985.72;;;5.48;100.00
35331;BME280;21441;52.190;20.910;2023-04-07T03:05:49;99982.63;;;5.52;100.00
35331;BME280;21441;52.190;20.910;2023-04-07T03:08:16;99987.47;;;5.57;100.00
35331;BME280;21441;52.190;20.910;2023-04-07T03:10:43;99993.91;;;5.54;100.00
35331;BME280;21441;52.190;20.910;2023-04-07T03:13:11;99992.44;;;5.70;100.00
35331;BME280;21441;52.190;20.910;2023-04-07T03:15:41;99994.28;;;5.69;100.00
35331;BME280;21441;52.190;20.910;2023-04-07T03:18:08;99983.81;;;5.68;100.00
35331;BME280;21441;52.190;20.910;2023-04-07T03:20:35;99994.72;;;5.65;100.00
35331;BME280;21441;52.190;20.910;2023-04-07T03:23:03;99986.19;;;5.71;100.00
35331;BME280;21441;52.190;20.910;2023-04-07T03:25:29;99992.06;;;5.65;100.00
35331;BME280;21441;52.190;20.910;2023-04-07T03:27:57;99991.88;;;5.76;100.00
35331;BME280;21441;52.190;20.910;2023-04-07T03:30:25;99990.34;;;5.73;100.00
35331;BME280;21441;52.190;20.910;2023-04-07T03:32:53;99985.63;;;5.67;100.00
35331;BME280;21441;52.190;20.910;2023-04-07T03:35:19;99988.31;;;5.57;100.00
35331;BME280;21441;52.190;20.910;2023-04-07T03:37:47;99987.66;;;5.55;100.00
35331;BME280;21441;52.190;20.910;2023-04-07T03:40:14;99985.53;;;5.59;100.00
35331;BME280;21441;52.190;20.910;2023-04-07T03:42:42;99978.66;;;5.66;100.00
35331;BME280;21441;52.190;20.910;2023-04-07T03:45:09;99975.31;;;5.74;100.00
35331;BME280;21441;52.190;20.910;2023-04-07T03:47:37;99985.44;;;5.78;100.00
35331;BME280;21441;52.190;20.910;2023-04-07T03:50:05;99989.22;;;5.76;100.00
35331;BME280;21441;52.190;20.910;2023-04-07T03:52:32;99985.63;;;5.67;100.00
35331;BME280;21441;52.190;20.910;2023-04-07T03:54:59;99983.63;;;5.79;100.00
35331;BME280;21441;52.190;20.910;2023-04-07T03:57:26;99985.88;;;5.74;100.00
35331;BME280;21441;52.190;20.910;2023-04-07T03:59:53;99981.03;;;5.69;100.00
35331;BME280;21441;52.190;20.910;2023-04-07T04:02:21;99980.47;;;5.66;100.00
35331;BME280;21441;52.190;20.910;2023-04-07T04:04:49;99983.09;;;5.75;100.00
35331;BME280;21441;52.190;20.910;2023-04-07T04:07:16;99983.03;;;5.85;100.00
35331;BME280;21441;52.190;20.910;2023-04-07T04:09:43;99980.16;;;5.78;100.00
35331;BME280;21441;52.190;20.910;2023-04-07T04:12:11;99978.91;;;5.73;100.00
35331;BME280;21441;52.190;20.910;2023-04-07T04:14:37;99983.44;;;5.90;100.00
35331;BME280;21441;52.190;20.910;2023-04-07T04:17:05;99986.03;;;5.72;100.00
35331;BME280;21441;52.190;20.910;2023-04-07T04:19:32;99977.25;;;5.72;100.00
35331;BME280;21441;52.190;20.910;2023-04-07T04:22:00;99985.88;;;5.74;100.00
35331;BME280;21441;52.190;20.910;2023-04-07T04:24:27;99992.22;;;5.91;100.00
35331;BME280;21441;52.190;20.910;2023-04-07T04:26:54;99987.47;;;5.94;100.00
35331;BME280;21441;52.190;20.910;2023-04-07T04:29:22;99996.16;;;5.87;100.00
35331;BME280;21441;52.190;20.910;2023-04-07T04:31:49;99991.38;;;6.00;100.00
35331;BME280;21441;52.190;20.910;2023-04-07T04:34:16;99988.41;;;6.03;100.00
35331;BME280;21441;52.190;20.910;2023-04-07T04:36:43;100001.81;;;6.02;100.00
35331;BME280;21441;52.190;20.910;2023-04-07T04:39:11;100000.38;;;6.07;100.00
35331;BME280;21441;52.190;20.910;2023-04-07T04:41:39;100009.34;;;6.24;100.00
35331;BME280;21441;52.190;20.910;2023-04-07T04:44:05;100005.22;;;6.12;100.00
35331;BME280;21441;52.190;20.910;2023-04-07T04:46:33;100007.88;;;6.12;100.00
35331;BME280;21441;52.190;20.910;2023-04-07T04:49:00;100008.34;;;6.25;100.00
35331;BME280;21441;52.190;20.910;2023-04-07T04:51:27;100006.31;;;6.19;100.00
35331;BME280;21441;52.190;20.910;2023-04-07T04:53:54;100007.69;;;6.23;100.00
35331;BME280;21441;52.190;20.910;2023-04-07T04:56:23;100008.31;;;6.07;100.00
35331;BME280;21441;52.190;20.910;2023-04-07T04:58:50;100002.59;;;6.12;100.00
35331;BME280;21441;52.190;20.910;2023-04-07T05:01:17;100002.69;;;6.20;100.00
35331;BME280;21441;52.190;20.910;2023-04-07T05:03:44;100000.06;;;6.10;100.00
35331;BME280;21441;52.190;20.910;2023-04-07T05:06:11;100002.31;;;6.15;100.00
35331;BME280;21441;52.190;20.910;2023-04-07T05:08:38;99998.84;;;6.32;100.00
35331;BME280;21441;52.190;20.910;2023-04-07T05:11:05;99997.47;;;6.28;100.00
35331;BME280;21441;52.190;20.910;2023-04-07T05:13:33;100001.69;;;6.21;100.00
35331;BME280;21441;52.190;20.910;2023-04-07T05:16:01;100003.63;;;6.29;100.00
35331;BME280;21441;52.190;20.910;2023-04-07T05:18:28;100002.81;;;6.46;100.00
35331;BME280;21441;52.190;20.910;2023-04-07T05:20:55;100008.09;;;6.28;100.00
35331;BME280;21441;52.190;20.910;2023-04-07T05:23:22;99998.00;;;6.32;100.00
35331;BME280;21441;52.190;20.910;2023-04-07T05:25:49;100000.38;;;6.35;100.00
35331;BME280;21441;52.190;20.910;2023-04-07T05:28:16;100010.28;;;6.51;100.00
35331;BME280;21441;52.190;20.910;2023-04-07T05:30:45;100003.03;;;6.71;100.00
35331;BME280;21441;52.190;20.910;2023-04-07T05:33:12;100009.00;;;6.73;100.00
35331;BME280;21441;52.190;20.910;2023-04-07T05:35:39;100011.53;;;6.74;100.00
35331;BME280;21441;52.190;20.910;2023-04-07T05:38:06;100011.28;;;6.86;100.00
35331;BME280;21441;52.190;20.910;2023-04-07T05:40:33;100008.88;;;6.74;100.00
35331;BME280;21441;52.190;20.910;2023-04-07T05:43:00;100000.59;;;6.77;100.00
35331;BME280;21441;52.190;20.910;2023-04-07T05:45:27;100008.88;;;6.74;100.00
35331;BME280;21441;52.190;20.910;2023-04-07T05:47:55;100002.56;;;6.75;100.00
35331;BME280;21441;52.190;20.910;2023-04-07T05:50:23;100010.00;;;6.90;100.00
35331;BME280;21441;52.190;20.910;2023-04-07T05:52:50;100010.25;;;6.78;100.00
35331;BME280;21441;52.190;20.910;2023-04-07T05:55:17;100007.41;;;6.80;100.00
35331;BME280;21441;52.190;20.910;2023-04-07T05:57:44;100006.41;;;6.99;100.00
35331;BME280;21441;52.190;20.910;2023-04-07T06:00:12;100005.84;;;7.13;100.00
35331;BME280;21441;52.190;20.910;2023-04-07T06:02:39;100006.50;;;7.07;100.00
35331;BME280;21441;52.190;20.910;2023-04-07T06:05:08;100002.66;;;7.28;100.00
35331;BME280;21441;52.190;20.910;2023-04-07T06:07:35;100009.53;;;7.38;100.00
35331;BME280;21441;52.190;20.910;2023-04-07T06:10:03;100010.47;;;7.29;100.00
35331;BME280;21441;52.190;20.910;2023-04-07T06:12:30;100008.03;;;7.36;100.00
35331;BME280;21441;52.190;20.910;2023-04-07T06:14:58;100009.72;;;7.45;100.00
35331;BME280;21441;52.190;20.910;2023-04-07T06:17:25;99995.22;;;7.31;100.00
35331;BME280;21441;52.190;20.910;2023-04-07T06:19:52;100009.72;;;7.45;100.00
35331;BME280;21441;52.190;20.910;2023-04-07T06:22:20;100008.25;;;7.51;100.00
35331;BME280;21441;52.190;20.910;2023-04-07T06:24:47;100009.06;;;7.43;100.00
35331;BME280;21441;52.190;20.910;2023-04-07T06:27:15;99998.03;;;7.30;100.00
35331;BME280;21441;52.190;20.910;2023-04-07T06:29:43;100007.13;;;7.27;100.00
35331;BME280;21441;52.190;20.910;2023-04-07T06:32:10;100003.19;;;7.31;100.00
35331;BME280;21441;52.190;20.910;2023-04-07T06:34:37;100005.59;;;7.51;100.00
35331;BME280;21441;52.190;20.910;2023-04-07T06:37:04;100004.69;;;7.60;100.00
35331;BME280;21441;52.190;20.910;2023-04-07T06:39:33;99995.47;;;7.46;100.00
35331;BME280;21441;52.190;20.910;2023-04-07T06:42:00;100000.34;;;7.59;100.00
35331;BME280;21441;52.190;20.910;2023-04-07T06:44:27;100002.25;;;7.75;100.00
35331;BME280;21441;52.190;20.910;2023-04-07T06:46:54;100000.44;;;7.75;100.00
35331;BME280;21441;52.190;20.910;2023-04-07T06:49:21;100004.59;;;7.78;100.00
35331;BME280;21441;52.190;20.910;2023-04-07T06:51:48;99999.72;;;7.65;100.00
35331;BME280;21441;52.190;20.910;2023-04-07T06:54:16;100000.41;;;7.67;100.00
35331;BME280;21441;52.190;20.910;2023-04-07T06:56:44;100010.25;;;7.83;100.00
35331;BME280;21441;52.190;20.910;2023-04-07T06:59:11;100009.53;;;8.07;100.00
35331;BME280;21441;52.190;20.910;2023-04-07T07:01:38;100007.78;;;8.24;100.00
35331;BME280;21441;52.190;20.910;2023-04-07T07:04:05;100005.97;;;8.33;100.00
35331;BME280;21441;52.190;20.910;2023-04-07T07:06:32;100009.78;;;8.30;100.00
35331;BME280;21441;52.190;20.910;2023-04-07T07:09:00;99998.06;;;8.41;100.00
35331;BME280;21441;52.190;20.910;2023-04-07T07:11:28;100006.88;;;8.58;100.00
35331;BME280;21441;52.190;20.910;2023-04-07T07:13:56;100007.06;;;8.56;100.00
35331;BME280;21441;52.190;20.910;2023-04-07T07:16:23;99997.25;;;8.73;100.00
35331;BME280;21441;52.190;20.910;2023-04-07T07:18:51;100005.72;;;8.52;100.00
35331;BME280;21441;52.190;20.910;2023-04-07T07:21:18;100000.09;;;8.72;100.00
35331;BME280;21441;52.190;20.910;2023-04-07T07:23:45;99995.78;;;8.87;100.00
35331;BME280;21441;52.190;20.910;2023-04-07T07:26:12;99995.94;;;8.77;100.00
35331;BME280;21441;52.190;20.910;2023-04-07T07:28:39;100000.75;;;8.82;100.00
35331;BME280;21441;52.190;20.910;2023-04-07T07:31:11;100007.41;;;8.86;100.00
35331;BME280;21441;52.190;20.910;2023-04-07T07:33:40;100014.41;;;8.87;100.00
35331;BME280;21441;52.190;20.910;2023-04-07T07:36:08;100013.06;;;8.91;100.00
35331;BME280;21441;52.190;20.910;2023-04-07T07:38:36;100014.56;;;8.85;100.00
35331;BME280;21441;52.190;20.910;2023-04-07T07:41:05;100021.53;;;8.95;100.00
35331;BME280;21441;52.190;20.910;2023-04-07T07:43:32;100016.56;;;9.00;100.00
35331;BME280;21441;52.190;20.910;2023-04-07T07:45:59;100014.06;;;8.98;100.00
35331;BME280;21441;52.190;20.910;2023-04-07T07:48:27;100014.91;;;8.99;100.00
35331;BME280;21441;52.190;20.910;2023-04-07T07:50:54;100025.88;;;9.12;100.00
35331;BME280;21441;52.190;20.910;2023-04-07T07:53:22;100025.03;;;9.28;100.00
35331;BME280;21441;52.190;20.910;2023-04-07T07:55:49;100026.81;;;9.52;100.00
35331;BME280;21441;52.190;20.910;2023-04-07T07:58:16;100025.53;;;9.40;100.00
35331;BME280;21441;52.190;20.910;2023-04-07T08:00:43;100023.19;;;9.45;100.00
35331;BME280;21441;52.190;20.910;2023-04-07T08:03:10;100026.81;;;9.52;100.00
35331;BME280;21441;52.190;20.910;2023-04-07T08:05:39;100023.94;;;9.70;100.00
35331;BME280;21441;52.190;20.910;2023-04-07T08:08:07;100029.63;;;9.59;100.00
35331;BME280;21441;52.190;20.910;2023-04-07T08:10:34;100028.63;;;9.68;100.00
35331;BME280;21441;52.190;20.910;2023-04-07T08:13:01;100029.13;;;9.71;100.00
35331;BME280;21441;52.190;20.910;2023-04-07T08:15:29;100026.88;;;10.00;100.00
35331;BME280;21441;52.190;20.910;2023-04-07T08:17:57;100017.34;;;10.05;100.00
35331;BME280;21441;52.190;20.910;2023-04-07T08:20:25;100023.91;;;10.26;100.00
35331;BME280;21441;52.190;20.910;2023-04-07T08:22:54;100019.31;;;10.11;100.00
35331;BME280;21441;52.190;20.910;2023-04-07T08:25:21;100027.69;;;10.00;100.00
35331;BME280;21441;52.190;20.910;2023-04-07T08:27:48;100025.09;;;10.23;100.00
35331;BME280;21441;52.190;20.910;2023-04-07T08:30:15;100028.06;;;10.28;100.00
35331;BME280;21441;52.190;20.910;2023-04-07T08:32:43;100019.03;;;10.38;100.00
35331;BME280;21441;52.190;20.910;2023-04-07T08:35:11;100023.59;;;10.29;100.00
35331;BME280;21441;52.190;20.910;2023-04-07T08:37:39;100026.72;;;10.41;100.00
35331;BME280;21441;52.190;20.910;2023-04-07T08:40:10;100027.41;;;10.35;100.00
35331;BME280;21441;52.190;20.910;2023-04-07T08:42:40;100018.25;;;10.29;100.00
35331;BME280;21441;52.190;20.910;2023-04-07T08:45:08;100020.53;;;10.40;100.00
35331;BME280;21441;52.190;20.910;2023-04-07T08:47:36;100021.56;;;10.62;100.00
35331;BME280;21441;52.190;20.910;2023-04-07T08:50:05;100019.66;;;10.48;100.00
35331;BME280;21441;52.190;20.910;2023-04-07T08:52:39;100023.13;;;10.57;100.00
35331;BME280;21441;52.190;20.910;2023-04-07T08:55:09;100016.84;;;10.49;100.00
35331;BME280;21441;52.190;20.910;2023-04-07T08:57:37;100019.91;;;10.61;100.00
35331;BME280;21441;52.190;20.910;2023-04-07T09:00:05;100020.41;;;10.88;100.00
35331;BME280;21441;52.190;20.910;2023-04-07T09:02:34;100025.19;;;10.92;100.00
35331;BME280;21441;52.190;20.910;2023-04-07T09:05:03;100025.59;;;11.04;100.00
35331;BME280;21441;52.190;20.910;2023-04-07T09:07:31;100022.97;;;11.19;100.00
35331;BME280;21441;52.190;20.910;2023-04-07T09:09:58;100032.19;;;11.17;100.00
35331;BME280;21441;52.190;20.910;2023-04-07T09:12:28;100021.88;;;10.90;100.00
35331;BME280;21441;52.190;20.910;2023-04-07T09:14:55;100021.41;;;10.87;100.00
35331;BME280;21441;52.190;20.910;2023-04-07T09:17:24;100015.06;;;10.88;100.00
35331;BME280;21441;52.190;20.910;2023-04-07T09:19:51;100017.56;;;10.89;100.00
35331;BME280;21441;52.190;20.910;2023-04-07T09:22:33;100016.31;;;10.77;100.00
35331;BME280;21441;52.190;20.910;2023-04-07T09:25:09;100013.88;;;10.90;100.00
35331;BME280;21441;52.190;20.910;2023-04-07T09:27:38;100016.53;;;10.90;100.00
35331;BME280;21441;52.190;20.910;2023-04-07T09:30:12;100009.78;;;10.80;100.00
35331;BME280;21441;52.190;20.910;2023-04-07T09:32:39;100008.59;;;10.82;100.00
35331;BME280;21441;52.190;20.910;2023-04-07T09:35:07;100010.09;;;10.85;100.00
35331;BME280;21441;52.190;20.910;2023-04-07T09:37:35;100009.28;;;10.53;100.00
35331;BME280;21441;52.190;20.910;2023-04-07T09:40:03;100017.13;;;10.78;100.00
35331;BME280;21441;52.190;20.910;2023-04-07T09:42:31;100016.19;;;10.93;100.00
35331;BME280;21441;52.190;20.910;2023-04-07T09:45:02;100014.63;;;10.99;100.00
35331;BME280;21441;52.190;20.910;2023-04-07T09:47:31;100013.63;;;11.00;100.00
35331;BME280;21441;52.190;20.910;2023-04-07T09:49:58;100017.94;;;11.01;100.00
35331;BME280;21441;52.190;20.910;2023-04-07T09:52:49;100013.91;;;11.05;100.00
35331;BME280;21441;52.190;20.910;2023-04-07T09:55:19;100022.16;;;11.19;100.00
35331;BME280;21441;52.190;20.910;2023-04-07T09:57:48;100028.84;;;11.14;100.00
35331;BME280;21441;52.190;20.910;2023-04-07T10:00:17;100017.09;;;11.24;100.00
35331;BME280;21441;52.190;20.910;2023-04-07T10:02:45;100018.88;;;11.31;100.00
35331;BME280;21441;52.190;20.910;2023-04-07T10:05:12;100023.50;;;11.38;100.00
35331;BME280;21441;52.190;20.910;2023-04-07T10:07:39;100025.63;;;11.42;100.00
35331;BME280;21441;52.190;20.910;2023-04-07T10:10:07;100027.09;;;11.45;100.00
35331;BME280;21441;52.190;20.910;2023-04-07T10:12:36;100029.59;;;11.46;100.00
35331;BME280;21441;52.190;20.910;2023-04-07T10:15:04;100020.00;;;11.67;100.00
35331;BME280;21441;52.190;20.910;2023-04-07T10:17:35;100027.41;;;11.80;100.00
35331;BME280;21441;52.190;20.910;2023-04-07T10:20:03;100022.44;;;11.91;100.00
35331;BME280;21441;52.190;20.910;2023-04-07T10:22:34;100019.94;;;11.90;100.00
35331;BME280;21441;52.190;20.910;2023-04-07T10:25:05;100024.38;;;11.97;100.00
35331;BME280;21441;52.190;20.910;2023-04-07T10:27:38;100017.56;;;11.95;100.00
35331;BME280;21441;52.190;20.910;2023-04-07T10:30:16;100022.81;;;12.03;100.00
35331;BME280;21441;52.190;20.910;2023-04-07T10:32:49;100024.75;;;11.94;100.00
35331;BME280;21441;52.190;20.910;2023-04-07T10:35:16;100028.78;;;12.05;100.00
35331;BME280;21441;52.190;20.910;2023-04-07T10:38:10;100023.63;;;11.89;100.00
35331;BME280;21441;52.190;20.910;2023-04-07T10:40:39;100036.28;;;12.10;100.00
35331;BME280;21441;52.190;20.910;2023-04-07T10:43:07;100020.09;;;11.73;100.00
35331;BME280;21441;52.190;20.910;2023-04-07T10:45:54;100024.78;;;11.56;100.00
35331;BME280;21441;52.190;20.910;2023-04-07T10:48:25;100034.75;;;11.77;100.00
35331;BME280;21441;52.190;20.910;2023-04-07T10:51:16;100030.09;;;11.94;100.00
35331;BME280;21441;52.190;20.910;2023-04-07T10:54:17;100029.44;;;12.07;100.00
35331;BME280;21441;52.190;20.910;2023-04-07T10:57:05;100042.13;;;12.20;100.00
35331;BME280;21441;52.190;20.910;2023-04-07T10:59:35;100039.22;;;12.15;100.00
35331;BME280;21441;52.190;20.910;2023-04-07T11:02:29;100039.38;;;12.28;100.00
35331;BME280;21441;52.190;20.910;2023-04-07T11:04:58;100038.97;;;12.31;100.00
35331;BME280;21441;52.190;20.910;2023-04-07T11:07:46;100041.88;;;12.51;100.00
35331;BME280;21441;52.190;20.910;2023-04-07T11:10:14;100037.53;;;12.65;100.00
35331;BME280;21441;52.190;20.910;2023-04-07T11:12:44;100042.72;;;12.01;100.00
35331;BME280;21441;52.190;20.910;2023-04-07T11:15:23;100037.28;;;12.09;100.00
35331;BME280;21441;52.190;20.910;2023-04-07T11:18:13;100037.09;;;12.10;100.00
35331;BME280;21441;52.190;20.910;2023-04-07T11:20:44;100043.34;;;12.32;100.00
35331;BME280;21441;52.190;20.910;2023-04-07T11:23:11;100033.03;;;12.51;100.00
35331;BME280;21441;52.190;20.910;2023-04-07T11:25:41;100040.81;;;12.46;100.00
35331;BME280;21441;52.190;20.910;2023-04-07T11:28:09;100040.00;;;12.30;100.00
35331;BME280;21441;52.190;20.910;2023-04-07T11:30:37;100043.66;;;12.44;100.00
35331;BME280;21441;52.190;20.910;2023-04-07T11:33:06;100032.53;;;12.62;100.00
35331;BME280;21441;52.190;20.910;2023-04-07T11:35:34;100040.66;;;12.32;100.00
35331;BME280;21441;52.190;20.910;2023-04-07T11:38:02;100034.84;;;12.29;100.00
35331;BME280;21441;52.190;20.910;2023-04-07T11:40:31;100039.63;;;12.33;100.00
35331;BME280;21441;52.190;20.910;2023-04-07T11:42:59;100048.66;;;12.47;100.00
35331;BME280;21441;52.190;20.910;2023-04-07T11:45:27;100036.44;;;12.23;100.00
35331;BME280;21441;52.190;20.910;2023-04-07T11:47:54;100039.13;;;12.08;100.00
35331;BME280;21441;52.190;20.910;2023-04-07T11:50:38;100040.59;;;12.11;100.00
35331;BME280;21441;52.190;20.910;2023-04-07T11:53:07;100039.22;;;12.00;100.00
35331;BME280;21441;52.190;20.910;2023-04-07T11:55:34;100038.47;;;12.06;100.00
35331;BME280;21441;52.190;20.910;2023-04-07T11:58:05;100043.66;;;12.08;100.00
35331;BME280;21441;52.190;20.910;2023-04-07T12:00:35;100046.31;;;12.08;100.00
35331;BME280;21441;52.190;20.910;2023-04-07T12:03:09;100043.34;;;12.03;100.00
35331;BME280;21441;52.190;20.910;2023-04-07T12:05:43;100042.44;;;11.95;100.00
35331;BME280;21441;52.190;20.910;2023-04-07T12:08:12;100048.94;;;11.63;100.00
35331;BME280;21441;52.190;20.910;2023-04-07T12:10:39;100057.34;;;11.75;100.00
35331;BME280;21441;52.190;20.910;2023-04-07T12:13:07;100047.09;;;11.49;100.00
35331;BME280;21441;52.190;20.910;2023-04-07T12:15:34;100047.75;;;11.28;100.00
35331;BME280;21441;52.190;20.910;2023-04-07T12:18:02;100045.56;;;11.31;100.00
35331;BME280;21441;52.190;20.910;2023-04-07T12:20:30;100042.41;;;11.28;100.00
35331;BME280;21441;52.190;20.910;2023-04-07T12:22:57;100043.22;;;11.51;100.00
35331;BME280;21441;52.190;20.910;2023-04-07T12:25:27;100044.78;;;11.61;100.00
35331;BME280;21441;52.190;20.910;2023-04-07T12:27:53;100038.53;;;11.83;100.00
35331;BME280;21441;52.190;20.910;2023-04-07T12:30:21;100048.78;;;12.09;100.00
35331;BME280;21441;52.190;20.910;2023-04-07T12:32:48;100056.28;;;11.99;100.00
35331;BME280;21441;52.190;20.910;2023-04-07T12:35:15;100058.75;;;12.15;100.00
35331;BME280;21441;52.190;20.910;2023-04-07T12:37:42;100059.88;;;12.21;100.00
35331;BME280;21441;52.190;20.910;2023-04-07T12:40:10;100061.06;;;12.18;100.00
35331;BME280;21441;52.190;20.910;2023-04-07T12:42:38;100073.69;;;12.10;100.00
35331;BME280;21441;52.190;20.910;2023-04-07T12:45:06;100064.00;;;11.94;100.00
35331;BME280;21441;52.190;20.910;2023-04-07T12:47:33;100061.53;;;11.92;100.00